メインページ
METAR-TAF:

METAR-TAF

空港 :

チタ, ロシア

カダラ空港

緯度: 52-05N, 経度: 113-29E, 海抜: 685m

現時点の気象観測

当レポートは38分前の23:00(UTC)に作成
の風 2kt
気温 0°C
湿度 74%
気圧 1011 hPa
視程10km以上

METAR: UIAA 232300Z 17001MPS 9999 NSC 00/M04 Q1011 R29/70D NOSIG RMK QFE700/0934

時間: 08:38 (23:38 UTC)

予報

当レポートは3時間38分前の20:00(UTC)に作成
予報は23日の 21時(UTC)から 24日の 21時(UTC)まで有効
南/南東の風 6kt
視程10km以上
高度300ftの雲は散在している
23日の 21時(UTC)から 24日の 01時(UTC)まで一時的に
視程: 0500m
24日の 01時(UTC)から 24日の 03時(UTC)まで徐々に
高度4000ftの千切れ雲あり, 積乱雲.

TAF: UIAA 232000Z 2321/2421 16003MPS 9999 SCT003 TEMPO 2321/2401 0500 FG BECMG 2401/2403 BKN040CB

4,000以上の空港の気象観測と天気予報(METAR報とTAF報)

利用可能な観測所は地図上に黄色い丸と赤い丸で示す。

丸の上にカーソルを重ねると観測所名を参照できる。

次にクリックすると気象観測と天気予報を参照できる。

マップの切り替え:黒色「×」印の緑ボタンをクリックして拡大、「-」印の緑ボタンをクリックして縮小、緑色の三角印をクリックして隣りの地図に切り替え


METAR-TAF: